sensor_id;sensor_type;location;lat;lon;timestamp;P1;durP1;ratioP1;P2;durP2;ratioP2
43952;SDS011;29608;49.400;11.010;2022-08-01T00:01:12;1.05;;;1.02;;
43952;SDS011;29608;49.400;11.010;2022-08-01T00:03:42;0.85;;;0.82;;
43952;SDS011;29608;49.400;11.010;2022-08-01T00:06:10;0.98;;;0.98;;
43952;SDS011;29608;49.400;11.010;2022-08-01T00:08:38;0.70;;;0.70;;
43952;SDS011;29608;49.400;11.010;2022-08-01T00:11:05;1.10;;;1.00;;
43952;SDS011;29608;49.400;11.010;2022-08-01T00:13:35;1.55;;;0.82;;
43952;SDS011;29608;49.400;11.010;2022-08-01T00:16:03;0.77;;;0.75;;
43952;SDS011;29608;49.400;11.010;2022-08-01T00:18:31;0.90;;;0.88;;
43952;SDS011;29608;49.400;11.010;2022-08-01T00:21:00;1.00;;;0.98;;
43952;SDS011;29608;49.400;11.010;2022-08-01T00:23:27;1.30;;;0.80;;
43952;SDS011;29608;49.400;11.010;2022-08-01T00:25:55;1.20;;;1.10;;
43952;SDS011;29608;49.400;11.010;2022-08-01T00:28:23;0.88;;;0.88;;
43952;SDS011;29608;49.400;11.010;2022-08-01T00:30:51;1.38;;;0.80;;
43952;SDS011;29608;49.400;11.010;2022-08-01T00:33:19;0.75;;;0.75;;
43952;SDS011;29608;49.400;11.010;2022-08-01T00:35:46;1.05;;;0.82;;
43952;SDS011;29608;49.400;11.010;2022-08-01T00:38:15;0.88;;;0.88;;
43952;SDS011;29608;49.400;11.010;2022-08-01T00:40:43;1.45;;;1.10;;
43952;SDS011;29608;49.400;11.010;2022-08-01T00:43:11;1.15;;;0.90;;
43952;SDS011;29608;49.400;11.010;2022-08-01T00:45:39;1.20;;;0.90;;
43952;SDS011;29608;49.400;11.010;2022-08-01T00:48:07;0.95;;;0.95;;
43952;SDS011;29608;49.400;11.010;2022-08-01T00:50:34;0.90;;;0.90;;
43952;SDS011;29608;49.400;11.010;2022-08-01T00:53:03;1.08;;;0.95;;
43952;SDS011;29608;49.400;11.010;2022-08-01T00:55:32;0.80;;;0.80;;
43952;SDS011;29608;49.400;11.010;2022-08-01T00:58:00;0.95;;;0.88;;
43952;SDS011;29608;49.400;11.010;2022-08-01T01:00:32;0.70;;;0.70;;
43952;SDS011;29608;49.400;11.010;2022-08-01T01:03:20;0.80;;;0.80;;
43952;SDS011;29608;49.400;11.010;2022-08-01T01:06:20;1.02;;;0.93;;
43952;SDS011;29608;49.400;11.010;2022-08-01T01:08:58;0.90;;;0.90;;
43952;SDS011;29608;49.400;11.010;2022-08-01T01:11:46;0.70;;;0.60;;
43952;SDS011;29608;49.400;11.010;2022-08-01T01:14:30;1.10;;;0.98;;
43952;SDS011;29608;49.400;11.010;2022-08-01T01:17:10;0.90;;;0.90;;
43952;SDS011;29608;49.400;11.010;2022-08-01T01:19:44;0.82;;;0.82;;
43952;SDS011;29608;49.400;11.010;2022-08-01T01:22:23;1.08;;;1.00;;
43952;SDS011;29608;49.400;11.010;2022-08-01T01:25:07;1.35;;;0.80;;
43952;SDS011;29608;49.400;11.010;2022-08-01T01:27:57;0.90;;;0.90;;
43952;SDS011;29608;49.400;11.010;2022-08-01T01:30:37;1.08;;;1.05;;
43952;SDS011;29608;49.400;11.010;2022-08-01T01:33:07;1.23;;;1.10;;
43952;SDS011;29608;49.400;11.010;2022-08-01T01:35:38;0.90;;;0.90;;
43952;SDS011;29608;49.400;11.010;2022-08-01T01:38:14;0.95;;;0.90;;
43952;SDS011;29608;49.400;11.010;2022-08-01T01:40:49;1.42;;;1.30;;
43952;SDS011;29608;49.400;11.010;2022-08-01T01:46:00;2.05;;;1.00;;
43952;SDS011;29608;49.400;11.010;2022-08-01T01:48:30;1.02;;;1.02;;
43952;SDS011;29608;49.400;11.010;2022-08-01T01:51:00;1.10;;;1.02;;
43952;SDS011;29608;49.400;11.010;2022-08-01T01:53:30;0.90;;;0.90;;
43952;SDS011;29608;49.400;11.010;2022-08-01T01:56:02;1.27;;;1.17;;
43952;SDS011;29608;49.400;11.010;2022-08-01T01:58:31;0.93;;;0.93;;
43952;SDS011;29608;49.400;11.010;2022-08-01T02:01:03;1.63;;;0.93;;
43952;SDS011;29608;49.400;11.010;2022-08-01T02:03:40;1.25;;;0.80;;
43952;SDS011;29608;49.400;11.010;2022-08-01T02:06:10;1.20;;;1.20;;
43952;SDS011;29608;49.400;11.010;2022-08-01T02:08:41;1.10;;;1.00;;
43952;SDS011;29608;49.400;11.010;2022-08-01T02:11:11;1.02;;;1.02;;
43952;SDS011;29608;49.400;11.010;2022-08-01T02:13:46;0.90;;;0.90;;
43952;SDS011;29608;49.400;11.010;2022-08-01T02:16:23;0.93;;;0.82;;
43952;SDS011;29608;49.400;11.010;2022-08-01T02:18:54;0.88;;;0.88;;
43952;SDS011;29608;49.400;11.010;2022-08-01T02:21:25;0.85;;;0.85;;
43952;SDS011;29608;49.400;11.010;2022-08-01T02:23:59;1.17;;;1.08;;
43952;SDS011;29608;49.400;11.010;2022-08-01T02:26:36;1.20;;;1.10;;
43952;SDS011;29608;49.400;11.010;2022-08-01T02:29:12;0.77;;;0.75;;
43952;SDS011;29608;49.400;11.010;2022-08-01T02:31:48;1.13;;;0.93;;
43952;SDS011;29608;49.400;11.010;2022-08-01T02:34:21;1.48;;;1.20;;
43952;SDS011;29608;49.400;11.010;2022-08-01T02:36:55;1.10;;;1.10;;
43952;SDS011;29608;49.400;11.010;2022-08-01T02:39:24;0.93;;;0.90;;
43952;SDS011;29608;49.400;11.010;2022-08-01T02:41:57;1.35;;;1.13;;
43952;SDS011;29608;49.400;11.010;2022-08-01T02:44:31;1.30;;;1.17;;
43952;SDS011;29608;49.400;11.010;2022-08-01T02:47:05;1.25;;;1.15;;
43952;SDS011;29608;49.400;11.010;2022-08-01T02:49:37;1.35;;;1.00;;
43952;SDS011;29608;49.400;11.010;2022-08-01T02:52:12;1.23;;;1.00;;
43952;SDS011;29608;49.400;11.010;2022-08-01T02:54:44;0.77;;;0.73;;
43952;SDS011;29608;49.400;11.010;2022-08-01T02:57:14;0.95;;;0.90;;
43952;SDS011;29608;49.400;11.010;2022-08-01T02:59:46;0.88;;;0.82;;
43952;SDS011;29608;49.400;11.010;2022-08-01T03:02:17;0.98;;;0.93;;
43952;SDS011;29608;49.400;11.010;2022-08-01T03:04:48;1.30;;;1.00;;
43952;SDS011;29608;49.400;11.010;2022-08-01T03:07:22;2.33;;;0.88;;
43952;SDS011;29608;49.400;11.010;2022-08-01T03:09:59;1.10;;;1.10;;
43952;SDS011;29608;49.400;11.010;2022-08-01T03:12:29;0.75;;;0.75;;
43952;SDS011;29608;49.400;11.010;2022-08-01T03:15:02;2.58;;;1.17;;
43952;SDS011;29608;49.400;11.010;2022-08-01T03:17:36;1.10;;;1.10;;
43952;SDS011;29608;49.400;11.010;2022-08-01T03:20:07;0.85;;;0.85;;
43952;SDS011;29608;49.400;11.010;2022-08-01T03:22:39;1.15;;;1.00;;
43952;SDS011;29608;49.400;11.010;2022-08-01T03:25:10;0.93;;;0.93;;
43952;SDS011;29608;49.400;11.010;2022-08-01T03:27:42;1.10;;;1.02;;
43952;SDS011;29608;49.400;11.010;2022-08-01T03:30:14;0.82;;;0.82;;
43952;SDS011;29608;49.400;11.010;2022-08-01T03:32:44;1.17;;;0.98;;
43952;SDS011;29608;49.400;11.010;2022-08-01T03:35:12;0.73;;;0.73;;
43952;SDS011;29608;49.400;11.010;2022-08-01T03:37:40;0.93;;;0.93;;
43952;SDS011;29608;49.400;11.010;2022-08-01T03:40:39;1.33;;;1.23;;
43952;SDS011;29608;49.400;11.010;2022-08-01T03:43:11;0.88;;;0.88;;
43952;SDS011;29608;49.400;11.010;2022-08-01T03:45:45;1.20;;;1.10;;
43952;SDS011;29608;49.400;11.010;2022-08-01T03:48:19;0.90;;;0.90;;
43952;SDS011;29608;49.400;11.010;2022-08-01T03:50:52;1.50;;;0.98;;
43952;SDS011;29608;49.400;11.010;2022-08-01T03:53:22;0.77;;;0.77;;
43952;SDS011;29608;49.400;11.010;2022-08-01T03:55:52;0.85;;;0.82;;
43952;SDS011;29608;49.400;11.010;2022-08-01T03:58:22;0.70;;;0.70;;
43952;SDS011;29608;49.400;11.010;2022-08-01T04:00:51;1.00;;;0.98;;
43952;SDS011;29608;49.400;11.010;2022-08-01T04:03:21;0.82;;;0.82;;
43952;SDS011;29608;49.400;11.010;2022-08-01T04:05:50;1.80;;;1.00;;
43952;SDS011;29608;49.400;11.010;2022-08-01T04:08:18;0.90;;;0.90;;
43952;SDS011;29608;49.400;11.010;2022-08-01T04:10:46;2.08;;;0.98;;
43952;SDS011;29608;49.400;11.010;2022-08-01T04:13:15;1.23;;;1.10;;
43952;SDS011;29608;49.400;11.010;2022-08-01T04:15:43;1.30;;;1.20;;
43952;SDS011;29608;49.400;11.010;2022-08-01T04:18:11;1.42;;;0.85;;
43952;SDS011;29608;49.400;11.010;2022-08-01T04:20:40;1.17;;;1.08;;
43952;SDS011;29608;49.400;11.010;2022-08-01T04:23:08;0.93;;;0.88;;
43952;SDS011;29608;49.400;11.010;2022-08-01T04:25:37;0.90;;;0.90;;
43952;SDS011;29608;49.400;11.010;2022-08-01T04:30:42;0.93;;;0.93;;
43952;SDS011;29608;49.400;11.010;2022-08-01T04:33:14;0.95;;;0.80;;
43952;SDS011;29608;49.400;11.010;2022-08-01T04:35:45;0.80;;;0.80;;
43952;SDS011;29608;49.400;11.010;2022-08-01T04:38:29;3.58;;;1.55;;
43952;SDS011;29608;49.400;11.010;2022-08-01T04:41:02;1.10;;;1.10;;
43952;SDS011;29608;49.400;11.010;2022-08-01T04:43:34;1.27;;;0.93;;
43952;SDS011;29608;49.400;11.010;2022-08-01T04:46:03;2.00;;;0.98;;
43952;SDS011;29608;49.400;11.010;2022-08-01T04:48:34;1.00;;;0.90;;
43952;SDS011;29608;49.400;11.010;2022-08-01T04:51:12;1.00;;;1.00;;
43952;SDS011;29608;49.400;11.010;2022-08-01T04:53:42;1.02;;;0.93;;
43952;SDS011;29608;49.400;11.010;2022-08-01T04:56:12;1.00;;;1.00;;
43952;SDS011;29608;49.400;11.010;2022-08-01T04:58:40;1.23;;;1.08;;
43952;SDS011;29608;49.400;11.010;2022-08-01T05:01:10;1.15;;;1.02;;
43952;SDS011;29608;49.400;11.010;2022-08-01T05:03:38;1.17;;;1.08;;
43952;SDS011;29608;49.400;11.010;2022-08-01T05:06:06;0.90;;;0.82;;
43952;SDS011;29608;49.400;11.010;2022-08-01T05:08:35;0.85;;;0.85;;
43952;SDS011;29608;49.400;11.010;2022-08-01T05:11:03;1.05;;;0.98;;
43952;SDS011;29608;49.400;11.010;2022-08-01T05:13:31;0.77;;;0.77;;
43952;SDS011;29608;49.400;11.010;2022-08-01T05:15:59;0.80;;;0.80;;
43952;SDS011;29608;49.400;11.010;2022-08-01T05:18:29;1.27;;;1.00;;
43952;SDS011;29608;49.400;11.010;2022-08-01T05:20:57;1.20;;;1.10;;
43952;SDS011;29608;49.400;11.010;2022-08-01T05:23:25;0.73;;;0.73;;
43952;SDS011;29608;49.400;11.010;2022-08-01T05:26:10;0.82;;;0.70;;
43952;SDS011;29608;49.400;11.010;2022-08-01T05:28:40;0.65;;;0.65;;
43952;SDS011;29608;49.400;11.010;2022-08-01T05:31:08;1.10;;;1.00;;
43952;SDS011;29608;49.400;11.010;2022-08-01T05:33:36;1.35;;;0.95;;
43952;SDS011;29608;49.400;11.010;2022-08-01T05:36:04;1.33;;;1.08;;
43952;SDS011;29608;49.400;11.010;2022-08-01T05:38:32;1.30;;;1.02;;
43952;SDS011;29608;49.400;11.010;2022-08-01T05:41:00;1.27;;;0.80;;
43952;SDS011;29608;49.400;11.010;2022-08-01T05:43:29;0.98;;;0.93;;
43952;SDS011;29608;49.400;11.010;2022-08-01T05:45:57;1.00;;;0.95;;
43952;SDS011;29608;49.400;11.010;2022-08-01T05:48:25;1.17;;;1.08;;
43952;SDS011;29608;49.400;11.010;2022-08-01T05:50:53;1.25;;;1.15;;
43952;SDS011;29608;49.400;11.010;2022-08-01T05:53:24;0.90;;;0.90;;
43952;SDS011;29608;49.400;11.010;2022-08-01T05:55:52;0.93;;;0.73;;
43952;SDS011;29608;49.400;11.010;2022-08-01T05:58:19;1.00;;;0.93;;
43952;SDS011;29608;49.400;11.010;2022-08-01T06:00:48;1.60;;;1.00;;
43952;SDS011;29608;49.400;11.010;2022-08-01T06:03:17;2.55;;;0.90;;
43952;SDS011;29608;49.400;11.010;2022-08-01T06:05:45;1.40;;;0.70;;
43952;SDS011;29608;49.400;11.010;2022-08-01T06:08:13;1.00;;;0.80;;
43952;SDS011;29608;49.400;11.010;2022-08-01T06:10:41;1.00;;;1.00;;
43952;SDS011;29608;49.400;11.010;2022-08-01T06:13:08;0.95;;;0.93;;
43952;SDS011;29608;49.400;11.010;2022-08-01T06:15:36;0.88;;;0.88;;
43952;SDS011;29608;49.400;11.010;2022-08-01T06:18:05;0.80;;;0.80;;
43952;SDS011;29608;49.400;11.010;2022-08-01T06:20:33;0.90;;;0.80;;
43952;SDS011;29608;49.400;11.010;2022-08-01T06:23:01;0.85;;;0.77;;
43952;SDS011;29608;49.400;11.010;2022-08-01T06:25:51;0.77;;;0.75;;
43952;SDS011;29608;49.400;11.010;2022-08-01T06:28:20;1.25;;;1.10;;
43952;SDS011;29608;49.400;11.010;2022-08-01T06:30:47;0.65;;;0.60;;
43952;SDS011;29608;49.400;11.010;2022-08-01T06:33:17;1.05;;;0.80;;
43952;SDS011;29608;49.400;11.010;2022-08-01T06:35:44;0.75;;;0.75;;
43952;SDS011;29608;49.400;11.010;2022-08-01T06:38:12;0.90;;;0.90;;
43952;SDS011;29608;49.400;11.010;2022-08-01T06:40:40;1.33;;;1.05;;
43952;SDS011;29608;49.400;11.010;2022-08-01T06:43:08;0.55;;;0.50;;
43952;SDS011;29608;49.400;11.010;2022-08-01T06:45:37;1.13;;;0.60;;
43952;SDS011;29608;49.400;11.010;2022-08-01T06:48:05;1.80;;;0.80;;
43952;SDS011;29608;49.400;11.010;2022-08-01T06:50:34;2.38;;;0.60;;
43952;SDS011;29608;49.400;11.010;2022-08-01T06:53:02;0.80;;;0.80;;
43952;SDS011;29608;49.400;11.010;2022-08-01T06:55:30;1.25;;;0.85;;
43952;SDS011;29608;49.400;11.010;2022-08-01T06:57:58;0.90;;;0.90;;
43952;SDS011;29608;49.400;11.010;2022-08-01T07:00:26;0.90;;;0.80;;
43952;SDS011;29608;49.400;11.010;2022-08-01T07:02:55;0.88;;;0.88;;
43952;SDS011;29608;49.400;11.010;2022-08-01T07:05:24;3.25;;;1.80;;
43952;SDS011;29608;49.400;11.010;2022-08-01T07:07:54;2.70;;;0.80;;
43952;SDS011;29608;49.400;11.010;2022-08-01T07:10:21;0.80;;;0.80;;
43952;SDS011;29608;49.400;11.010;2022-08-01T07:12:49;2.88;;;0.60;;
43952;SDS011;29608;49.400;11.010;2022-08-01T07:15:17;0.57;;;0.57;;
43952;SDS011;29608;49.400;11.010;2022-08-01T07:17:48;0.57;;;0.55;;
43952;SDS011;29608;49.400;11.010;2022-08-01T07:20:15;0.93;;;0.60;;
43952;SDS011;29608;49.400;11.010;2022-08-01T07:22:44;1.02;;;0.60;;
43952;SDS011;29608;49.400;11.010;2022-08-01T07:25:14;0.80;;;0.77;;
43952;SDS011;29608;49.400;11.010;2022-08-01T07:27:44;0.80;;;0.80;;
43952;SDS011;29608;49.400;11.010;2022-08-01T07:30:12;2.70;;;0.90;;
43952;SDS011;29608;49.400;11.010;2022-08-01T07:32:40;0.85;;;0.70;;
43952;SDS011;29608;49.400;11.010;2022-08-01T07:35:08;1.05;;;0.63;;
43952;SDS011;29608;49.400;11.010;2022-08-01T07:37:36;2.67;;;0.80;;
43952;SDS011;29608;49.400;11.010;2022-08-01T07:40:16;0.75;;;0.65;;
43952;SDS011;29608;49.400;11.010;2022-08-01T07:42:45;1.30;;;0.57;;
43952;SDS011;29608;49.400;11.010;2022-08-01T07:45:14;0.75;;;0.68;;
43952;SDS011;29608;49.400;11.010;2022-08-01T07:47:42;2.20;;;0.57;;
43952;SDS011;29608;49.400;11.010;2022-08-01T07:50:10;0.73;;;0.70;;
43952;SDS011;29608;49.400;11.010;2022-08-01T07:52:39;0.93;;;0.70;;
43952;SDS011;29608;49.400;11.010;2022-08-01T07:55:08;2.65;;;0.90;;
43952;SDS011;29608;49.400;11.010;2022-08-01T07:57:42;1.75;;;0.70;;
43952;SDS011;29608;49.400;11.010;2022-08-01T08:00:11;1.50;;;1.40;;
43952;SDS011;29608;49.400;11.010;2022-08-01T08:02:40;0.50;;;0.50;;
43952;SDS011;29608;49.400;11.010;2022-08-01T08:05:08;0.70;;;0.70;;
43952;SDS011;29608;49.400;11.010;2022-08-01T08:07:37;1.75;;;0.80;;
43952;SDS011;29608;49.400;11.010;2022-08-01T08:10:05;0.98;;;0.80;;
43952;SDS011;29608;49.400;11.010;2022-08-01T08:12:34;1.33;;;0.88;;
43952;SDS011;29608;49.400;11.010;2022-08-01T08:15:03;0.50;;;0.50;;
43952;SDS011;29608;49.400;11.010;2022-08-01T08:17:32;0.52;;;0.50;;
43952;SDS011;29608;49.400;11.010;2022-08-01T08:20:02;4.57;;;1.00;;
43952;SDS011;29608;49.400;11.010;2022-08-01T08:22:34;0.70;;;0.70;;
43952;SDS011;29608;49.400;11.010;2022-08-01T08:25:05;0.63;;;0.52;;
43952;SDS011;29608;49.400;11.010;2022-08-01T08:27:37;0.60;;;0.60;;
43952;SDS011;29608;49.400;11.010;2022-08-01T08:30:07;2.90;;;0.73;;
43952;SDS011;29608;49.400;11.010;2022-08-01T08:32:37;0.47;;;0.43;;
43952;SDS011;29608;49.400;11.010;2022-08-01T08:35:06;0.60;;;0.52;;
43952;SDS011;29608;49.400;11.010;2022-08-01T08:37:38;0.75;;;0.60;;
43952;SDS011;29608;49.400;11.010;2022-08-01T08:40:13;0.60;;;0.60;;
43952;SDS011;29608;49.400;11.010;2022-08-01T08:42:42;0.65;;;0.40;;
43952;SDS011;29608;49.400;11.010;2022-08-01T08:45:14;0.77;;;0.65;;
43952;SDS011;29608;49.400;11.010;2022-08-01T08:47:42;0.60;;;0.60;;
43952;SDS011;29608;49.400;11.010;2022-08-01T08:50:13;1.48;;;0.70;;
43952;SDS011;29608;49.400;11.010;2022-08-01T08:52:41;0.50;;;0.50;;
43952;SDS011;29608;49.400;11.010;2022-08-01T08:55:11;0.65;;;0.63;;
43952;SDS011;29608;49.400;11.010;2022-08-01T08:57:45;1.10;;;0.50;;
43952;SDS011;29608;49.400;11.010;2022-08-01T09:00:14;1.23;;;0.70;;
43952;SDS011;29608;49.400;11.010;2022-08-01T09:02:44;0.57;;;0.57;;
43952;SDS011;29608;49.400;11.010;2022-08-01T09:05:15;1.95;;;0.60;;
43952;SDS011;29608;49.400;11.010;2022-08-01T09:07:45;1.05;;;0.60;;
43952;SDS011;29608;49.400;11.010;2022-08-01T09:10:13;1.15;;;0.50;;
43952;SDS011;29608;49.400;11.010;2022-08-01T09:15:40;0.70;;;0.70;;
43952;SDS011;29608;49.400;11.010;2022-08-01T09:18:26;0.80;;;0.52;;
43952;SDS011;29608;49.400;11.010;2022-08-01T09:23:46;0.43;;;0.43;;
43952;SDS011;29608;49.400;11.010;2022-08-01T09:26:20;0.50;;;0.50;;
43952;SDS011;29608;49.400;11.010;2022-08-01T09:28:56;0.55;;;0.55;;
43952;SDS011;29608;49.400;11.010;2022-08-01T09:31:27;1.83;;;0.60;;
43952;SDS011;29608;49.400;11.010;2022-08-01T09:34:04;1.10;;;0.63;;
43952;SDS011;29608;49.400;11.010;2022-08-01T09:36:43;1.40;;;0.65;;
43952;SDS011;29608;49.400;11.010;2022-08-01T09:39:19;0.75;;;0.60;;
43952;SDS011;29608;49.400;11.010;2022-08-01T09:41:49;0.60;;;0.53;;
43952;SDS011;29608;49.400;11.010;2022-08-01T09:47:09;0.40;;;0.40;;
43952;SDS011;29608;49.400;11.010;2022-08-01T09:49:41;0.50;;;0.43;;
43952;SDS011;29608;49.400;11.010;2022-08-01T09:52:17;0.30;;;0.30;;
43952;SDS011;29608;49.400;11.010;2022-08-01T09:54:52;0.50;;;0.50;;
43952;SDS011;29608;49.400;11.010;2022-08-01T09:57:23;0.45;;;0.45;;
43952;SDS011;29608;49.400;11.010;2022-08-01T09:59:52;1.02;;;0.47;;
43952;SDS011;29608;49.400;11.010;2022-08-01T10:02:30;0.43;;;0.43;;
43952;SDS011;29608;49.400;11.010;2022-08-01T10:05:02;0.57;;;0.40;;
43952;SDS011;29608;49.400;11.010;2022-08-01T10:07:34;0.40;;;0.40;;
43952;SDS011;29608;49.400;11.010;2022-08-01T10:10:24;2.03;;;0.57;;
43952;SDS011;29608;49.400;11.010;2022-08-01T10:12:57;1.05;;;0.75;;
43952;SDS011;29608;49.400;11.010;2022-08-01T10:15:28;0.50;;;0.50;;
43952;SDS011;29608;49.400;11.010;2022-08-01T10:18:05;1.65;;;0.60;;
43952;SDS011;29608;49.400;11.010;2022-08-01T10:20:51;1.33;;;0.60;;
43952;SDS011;29608;49.400;11.010;2022-08-01T10:23:23;0.85;;;0.60;;
43952;SDS011;29608;49.400;11.010;2022-08-01T10:26:06;6.28;;;0.70;;
43952;SDS011;29608;49.400;11.010;2022-08-01T10:28:37;1.13;;;0.50;;
43952;SDS011;29608;49.400;11.010;2022-08-01T10:31:07;0.50;;;0.50;;
43952;SDS011;29608;49.400;11.010;2022-08-01T10:33:40;0.60;;;0.50;;
43952;SDS011;29608;49.400;11.010;2022-08-01T10:36:19;0.50;;;0.50;;
43952;SDS011;29608;49.400;11.010;2022-08-01T10:38:51;0.30;;;0.30;;
43952;SDS011;29608;49.400;11.010;2022-08-01T10:41:20;7.05;;;0.75;;
43952;SDS011;29608;49.400;11.010;2022-08-01T10:43:52;4.30;;;0.60;;
43952;SDS011;29608;49.400;11.010;2022-08-01T10:46:21;0.40;;;0.40;;
43952;SDS011;29608;49.400;11.010;2022-08-01T10:48:53;0.73;;;0.50;;
43952;SDS011;29608;49.400;11.010;2022-08-01T10:51:27;3.60;;;0.77;;
43952;SDS011;29608;49.400;11.010;2022-08-01T10:54:16;0.65;;;0.40;;
43952;SDS011;29608;49.400;11.010;2022-08-01T10:56:44;1.52;;;0.98;;
43952;SDS011;29608;49.400;11.010;2022-08-01T10:59:14;0.50;;;0.50;;
43952;SDS011;29608;49.400;11.010;2022-08-01T11:02:08;1.00;;;0.60;;
43952;SDS011;29608;49.400;11.010;2022-08-01T11:04:47;0.95;;;0.50;;
43952;SDS011;29608;49.400;11.010;2022-08-01T11:07:23;2.05;;;0.40;;
43952;SDS011;29608;49.400;11.010;2022-08-01T11:10:10;2.70;;;0.45;;
43952;SDS011;29608;49.400;11.010;2022-08-01T11:12:49;0.38;;;0.38;;
43952;SDS011;29608;49.400;11.010;2022-08-01T11:15:21;2.60;;;0.40;;
43952;SDS011;29608;49.400;11.010;2022-08-01T11:18:01;0.20;;;0.20;;
43952;SDS011;29608;49.400;11.010;2022-08-01T11:20:33;0.63;;;0.50;;
43952;SDS011;29608;49.400;11.010;2022-08-01T11:29:11;0.50;;;0.50;;
43952;SDS011;29608;49.400;11.010;2022-08-01T11:31:47;0.50;;;0.50;;
43952;SDS011;29608;49.400;11.010;2022-08-01T11:34:16;0.52;;;0.50;;
43952;SDS011;29608;49.400;11.010;2022-08-01T11:36:46;0.88;;;0.50;;
43952;SDS011;29608;49.400;11.010;2022-08-01T11:39:24;0.40;;;0.40;;
43952;SDS011;29608;49.400;11.010;2022-08-01T11:41:54;0.43;;;0.43;;
43952;SDS011;29608;49.400;11.010;2022-08-01T11:44:47;0.35;;;0.35;;
43952;SDS011;29608;49.400;11.010;2022-08-01T11:47:17;0.60;;;0.60;;
43952;SDS011;29608;49.400;11.010;2022-08-01T11:49:47;1.63;;;0.50;;
43952;SDS011;29608;49.400;11.010;2022-08-01T11:52:26;0.60;;;0.60;;
43952;SDS011;29608;49.400;11.010;2022-08-01T11:54:56;0.43;;;0.43;;
43952;SDS011;29608;49.400;11.010;2022-08-01T11:57:36;0.32;;;0.32;;
43952;SDS011;29608;49.400;11.010;2022-08-01T12:00:09;1.85;;;0.40;;
43952;SDS011;29608;49.400;11.010;2022-08-01T12:02:43;0.70;;;0.52;;
43952;SDS011;29608;49.400;11.010;2022-08-01T12:05:14;0.85;;;0.50;;
43952;SDS011;29608;49.400;11.010;2022-08-01T12:07:51;0.45;;;0.40;;
43952;SDS011;29608;49.400;11.010;2022-08-01T12:10:21;2.08;;;0.40;;
43952;SDS011;29608;49.400;11.010;2022-08-01T12:12:51;1.40;;;0.38;;
43952;SDS011;29608;49.400;11.010;2022-08-01T12:15:22;1.27;;;1.10;;
43952;SDS011;29608;49.400;11.010;2022-08-01T12:17:55;0.90;;;0.60;;
43952;SDS011;29608;49.400;11.010;2022-08-01T12:20:26;3.22;;;0.75;;
43952;SDS011;29608;49.400;11.010;2022-08-01T12:22:58;0.85;;;0.50;;
43952;SDS011;29608;49.400;11.010;2022-08-01T12:25:29;0.40;;;0.40;;
43952;SDS011;29608;49.400;11.010;2022-08-01T12:27:59;1.08;;;0.50;;
43952;SDS011;29608;49.400;11.010;2022-08-01T12:30:28;0.50;;;0.50;;
43952;SDS011;29608;49.400;11.010;2022-08-01T12:33:01;1.90;;;0.55;;
43952;SDS011;29608;49.400;11.010;2022-08-01T12:35:31;0.50;;;0.50;;
43952;SDS011;29608;49.400;11.010;2022-08-01T12:38:02;0.45;;;0.45;;
43952;SDS011;29608;49.400;11.010;2022-08-01T12:40:33;0.80;;;0.70;;
43952;SDS011;29608;49.400;11.010;2022-08-01T12:43:06;2.13;;;0.50;;
43952;SDS011;29608;49.400;11.010;2022-08-01T12:45:52;0.93;;;0.50;;
43952;SDS011;29608;49.400;11.010;2022-08-01T12:48:23;0.65;;;0.40;;
43952;SDS011;29608;49.400;11.010;2022-08-01T12:50:52;0.43;;;0.43;;
43952;SDS011;29608;49.400;11.010;2022-08-01T12:53:25;2.35;;;0.50;;
43952;SDS011;29608;49.400;11.010;2022-08-01T12:56:06;0.40;;;0.40;;
43952;SDS011;29608;49.400;11.010;2022-08-01T12:58:35;0.68;;;0.60;;
43952;SDS011;29608;49.400;11.010;2022-08-01T13:01:04;0.60;;;0.50;;
43952;SDS011;29608;49.400;11.010;2022-08-01T13:03:34;0.50;;;0.50;;
43952;SDS011;29608;49.400;11.010;2022-08-01T13:06:09;0.90;;;0.38;;
43952;SDS011;29608;49.400;11.010;2022-08-01T13:08:44;0.40;;;0.40;;
43952;SDS011;29608;49.400;11.010;2022-08-01T13:11:13;1.00;;;0.60;;
43952;SDS011;29608;49.400;11.010;2022-08-01T13:13:45;2.60;;;0.77;;
43952;SDS011;29608;49.400;11.010;2022-08-01T13:16:15;0.30;;;0.30;;
43952;SDS011;29608;49.400;11.010;2022-08-01T13:18:59;0.45;;;0.45;;
43952;SDS011;29608;49.400;11.010;2022-08-01T13:21:28;2.13;;;0.52;;
43952;SDS011;29608;49.400;11.010;2022-08-01T13:24:22;0.38;;;0.38;;
43952;SDS011;29608;49.400;11.010;2022-08-01T13:26:53;1.77;;;0.43;;
43952;SDS011;29608;49.400;11.010;2022-08-01T13:29:29;2.67;;;0.50;;
43952;SDS011;29608;49.400;11.010;2022-08-01T13:31:59;1.73;;;0.38;;
43952;SDS011;29608;49.400;11.010;2022-08-01T13:34:31;0.52;;;0.40;;
43952;SDS011;29608;49.400;11.010;2022-08-01T13:37:01;2.17;;;0.40;;
43952;SDS011;29608;49.400;11.010;2022-08-01T13:39:31;0.35;;;0.35;;
43952;SDS011;29608;49.400;11.010;2022-08-01T13:42:08;0.88;;;0.50;;
43952;SDS011;29608;49.400;11.010;2022-08-01T13:44:44;4.30;;;0.70;;
43952;SDS011;29608;49.400;11.010;2022-08-01T13:47:12;3.45;;;0.43;;
43952;SDS011;29608;49.400;11.010;2022-08-01T13:49:42;0.50;;;0.50;;
43952;SDS011;29608;49.400;11.010;2022-08-01T13:52:10;0.82;;;0.65;;
43952;SDS011;29608;49.400;11.010;2022-08-01T13:54:39;0.55;;;0.47;;
43952;SDS011;29608;49.400;11.010;2022-08-01T13:57:07;2.65;;;0.30;;
43952;SDS011;29608;49.400;11.010;2022-08-01T13:59:35;0.68;;;0.40;;
43952;SDS011;29608;49.400;11.010;2022-08-01T14:02:03;1.67;;;0.63;;
43952;SDS011;29608;49.400;11.010;2022-08-01T14:04:32;0.50;;;0.50;;
43952;SDS011;29608;49.400;11.010;2022-08-01T14:06:59;0.93;;;0.50;;
43952;SDS011;29608;49.400;11.010;2022-08-01T14:09:35;2.95;;;0.47;;
43952;SDS011;29608;49.400;11.010;2022-08-01T14:12:11;0.82;;;0.40;;
43952;SDS011;29608;49.400;11.010;2022-08-01T14:14:41;2.35;;;0.68;;
43952;SDS011;29608;49.400;11.010;2022-08-01T14:17:15;0.57;;;0.40;;
43952;SDS011;29608;49.400;11.010;2022-08-01T14:19:43;1.27;;;0.47;;
43952;SDS011;29608;49.400;11.010;2022-08-01T14:22:11;2.67;;;0.50;;
43952;SDS011;29608;49.400;11.010;2022-08-01T14:24:39;0.70;;;0.45;;
43952;SDS011;29608;49.400;11.010;2022-08-01T14:27:08;0.52;;;0.50;;
43952;SDS011;29608;49.400;11.010;2022-08-01T14:29:37;0.40;;;0.40;;
43952;SDS011;29608;49.400;11.010;2022-08-01T14:32:25;0.30;;;0.30;;
43952;SDS011;29608;49.400;11.010;2022-08-01T14:34:54;0.43;;;0.43;;
43952;SDS011;29608;49.400;11.010;2022-08-01T14:37:23;0.40;;;0.40;;
43952;SDS011;29608;49.400;11.010;2022-08-01T14:39:54;0.47;;;0.40;;
43952;SDS011;29608;49.400;11.010;2022-08-01T14:42:24;0.95;;;0.50;;
43952;SDS011;29608;49.400;11.010;2022-08-01T14:44:53;0.77;;;0.40;;
43952;SDS011;29608;49.400;11.010;2022-08-01T14:47:21;0.50;;;0.40;;
43952;SDS011;29608;49.400;11.010;2022-08-01T14:49:49;1.13;;;0.70;;
43952;SDS011;29608;49.400;11.010;2022-08-01T14:52:17;2.63;;;0.43;;
43952;SDS011;29608;49.400;11.010;2022-08-01T14:54:46;0.57;;;0.57;;
43952;SDS011;29608;49.400;11.010;2022-08-01T14:57:14;0.35;;;0.35;;
43952;SDS011;29608;49.400;11.010;2022-08-01T14:59:44;1.40;;;0.40;;
43952;SDS011;29608;49.400;11.010;2022-08-01T15:02:13;0.98;;;0.47;;
43952;SDS011;29608;49.400;11.010;2022-08-01T15:04:43;2.50;;;0.40;;
43952;SDS011;29608;49.400;11.010;2022-08-01T15:07:11;1.55;;;0.55;;
43952;SDS011;29608;49.400;11.010;2022-08-01T15:09:43;0.68;;;0.30;;
43952;SDS011;29608;49.400;11.010;2022-08-01T15:12:12;0.50;;;0.40;;
43952;SDS011;29608;49.400;11.010;2022-08-01T15:14:40;1.10;;;0.50;;
43952;SDS011;29608;49.400;11.010;2022-08-01T15:17:19;0.70;;;0.60;;
43952;SDS011;29608;49.400;11.010;2022-08-01T15:19:51;0.60;;;0.60;;